sensor_id;sensor_type;location;lat;lon;timestamp;P1;durP1;ratioP1;P2;durP2;ratioP2
72728;SDS011;60843;52.062;4.508;2022-10-30T00:01:56;13.57;;;5.03;;
72728;SDS011;60843;52.062;4.508;2022-10-30T00:04:22;15.07;;;6.00;;
72728;SDS011;60843;52.062;4.508;2022-10-30T00:06:47;19.60;;;5.57;;
72728;SDS011;60843;52.062;4.508;2022-10-30T00:09:13;14.50;;;5.05;;
72728;SDS011;60843;52.062;4.508;2022-10-30T00:11:39;13.18;;;5.15;;
72728;SDS011;60843;52.062;4.508;2022-10-30T00:14:05;17.13;;;4.90;;
72728;SDS011;60843;52.062;4.508;2022-10-30T00:16:30;10.63;;;4.72;;
72728;SDS011;60843;52.062;4.508;2022-10-30T00:18:56;12.10;;;5.47;;
72728;SDS011;60843;52.062;4.508;2022-10-30T00:21:21;12.93;;;5.33;;
72728;SDS011;60843;52.062;4.508;2022-10-30T00:23:48;14.02;;;5.10;;
72728;SDS011;60843;52.062;4.508;2022-10-30T00:26:14;14.63;;;6.45;;
72728;SDS011;60843;52.062;4.508;2022-10-30T00:28:40;17.17;;;5.65;;
72728;SDS011;60843;52.062;4.508;2022-10-30T00:31:06;19.23;;;5.20;;
72728;SDS011;60843;52.062;4.508;2022-10-30T00:33:31;11.55;;;5.70;;
72728;SDS011;60843;52.062;4.508;2022-10-30T00:35:57;18.63;;;5.53;;
72728;SDS011;60843;52.062;4.508;2022-10-30T00:38:23;17.33;;;6.50;;
72728;SDS011;60843;52.062;4.508;2022-10-30T00:40:48;14.00;;;4.93;;
72728;SDS011;60843;52.062;4.508;2022-10-30T00:45:55;11.80;;;5.50;;
72728;SDS011;60843;52.062;4.508;2022-10-30T00:48:23;16.48;;;5.78;;
72728;SDS011;60843;52.062;4.508;2022-10-30T00:50:49;14.75;;;5.13;;
72728;SDS011;60843;52.062;4.508;2022-10-30T00:53:15;11.68;;;4.70;;
72728;SDS011;60843;52.062;4.508;2022-10-30T00:55:47;14.38;;;5.47;;
72728;SDS011;60843;52.062;4.508;2022-10-30T00:58:21;12.95;;;5.53;;
72728;SDS011;60843;52.062;4.508;2022-10-30T01:00:51;12.65;;;5.45;;
72728;SDS011;60843;52.062;4.508;2022-10-30T01:03:18;16.05;;;6.25;;
72728;SDS011;60843;52.062;4.508;2022-10-30T01:05:51;20.45;;;6.47;;
72728;SDS011;60843;52.062;4.508;2022-10-30T01:08:19;15.65;;;6.05;;
72728;SDS011;60843;52.062;4.508;2022-10-30T01:10:54;18.77;;;5.80;;
72728;SDS011;60843;52.062;4.508;2022-10-30T01:13:21;15.95;;;6.32;;
72728;SDS011;60843;52.062;4.508;2022-10-30T01:21:43;19.63;;;6.00;;
72728;SDS011;60843;52.062;4.508;2022-10-30T01:24:18;17.38;;;6.35;;
72728;SDS011;60843;52.062;4.508;2022-10-30T01:29:54;18.45;;;5.72;;
72728;SDS011;60843;52.062;4.508;2022-10-30T01:40:20;16.48;;;6.05;;
72728;SDS011;60843;52.062;4.508;2022-10-30T01:42:47;20.52;;;5.82;;
72728;SDS011;60843;52.062;4.508;2022-10-30T01:45:21;14.90;;;6.35;;
72728;SDS011;60843;52.062;4.508;2022-10-30T01:55:47;15.75;;;6.30;;
72728;SDS011;60843;52.062;4.508;2022-10-30T02:00:51;17.65;;;5.97;;
72728;SDS011;60843;52.062;4.508;2022-10-30T02:03:19;13.00;;;5.93;;
72728;SDS011;60843;52.062;4.508;2022-10-30T02:05:49;18.00;;;6.95;;
72728;SDS011;60843;52.062;4.508;2022-10-30T02:08:15;19.50;;;6.13;;
72728;SDS011;60843;52.062;4.508;2022-10-30T02:10:41;14.80;;;7.10;;
72728;SDS011;60843;52.062;4.508;2022-10-30T02:13:08;13.88;;;5.43;;
72728;SDS011;60843;52.062;4.508;2022-10-30T02:15:34;12.88;;;5.65;;
72728;SDS011;60843;52.062;4.508;2022-10-30T02:18:00;16.67;;;6.50;;
72728;SDS011;60843;52.062;4.508;2022-10-30T02:20:25;16.83;;;5.78;;
72728;SDS011;60843;52.062;4.508;2022-10-30T02:22:51;16.77;;;5.85;;
72728;SDS011;60843;52.062;4.508;2022-10-30T02:25:17;13.85;;;5.85;;
72728;SDS011;60843;52.062;4.508;2022-10-30T02:27:42;14.40;;;5.20;;
72728;SDS011;60843;52.062;4.508;2022-10-30T02:30:08;15.45;;;6.03;;
72728;SDS011;60843;52.062;4.508;2022-10-30T02:32:34;13.88;;;5.68;;
72728;SDS011;60843;52.062;4.508;2022-10-30T02:34:59;17.73;;;6.82;;
72728;SDS011;60843;52.062;4.508;2022-10-30T02:37:25;18.35;;;5.53;;
72728;SDS011;60843;52.062;4.508;2022-10-30T02:39:51;17.48;;;6.65;;
72728;SDS011;60843;52.062;4.508;2022-10-30T02:42:16;14.57;;;5.57;;
72728;SDS011;60843;52.062;4.508;2022-10-30T02:44:41;15.17;;;5.30;;
72728;SDS011;60843;52.062;4.508;2022-10-30T02:47:07;16.23;;;6.13;;
72728;SDS011;60843;52.062;4.508;2022-10-30T02:49:32;14.80;;;6.03;;
72728;SDS011;60843;52.062;4.508;2022-10-30T02:51:58;13.90;;;5.67;;
72728;SDS011;60843;52.062;4.508;2022-10-30T02:54:23;14.57;;;5.70;;
72728;SDS011;60843;52.062;4.508;2022-10-30T02:56:49;17.67;;;6.38;;
72728;SDS011;60843;52.062;4.508;2022-10-30T02:59:15;16.50;;;6.38;;
72728;SDS011;60843;52.062;4.508;2022-10-30T03:01:40;15.88;;;5.72;;
72728;SDS011;60843;52.062;4.508;2022-10-30T03:04:06;14.70;;;6.00;;
72728;SDS011;60843;52.062;4.508;2022-10-30T03:06:31;13.43;;;5.47;;
72728;SDS011;60843;52.062;4.508;2022-10-30T03:08:56;17.98;;;6.00;;
72728;SDS011;60843;52.062;4.508;2022-10-30T03:11:22;13.32;;;5.85;;
72728;SDS011;60843;52.062;4.508;2022-10-30T03:13:47;15.80;;;5.67;;
72728;SDS011;60843;52.062;4.508;2022-10-30T03:16:14;11.63;;;6.07;;
72728;SDS011;60843;52.062;4.508;2022-10-30T03:18:42;17.55;;;6.30;;
72728;SDS011;60843;52.062;4.508;2022-10-30T03:21:15;13.65;;;5.60;;
72728;SDS011;60843;52.062;4.508;2022-10-30T03:23:42;14.70;;;6.22;;
72728;SDS011;60843;52.062;4.508;2022-10-30T03:26:08;14.80;;;6.30;;
72728;SDS011;60843;52.062;4.508;2022-10-30T03:28:33;15.00;;;5.88;;
72728;SDS011;60843;52.062;4.508;2022-10-30T03:31:09;15.52;;;7.07;;
72728;SDS011;60843;52.062;4.508;2022-10-30T03:33:36;17.15;;;6.65;;
72728;SDS011;60843;52.062;4.508;2022-10-30T03:36:03;17.23;;;6.30;;
72728;SDS011;60843;52.062;4.508;2022-10-30T03:38:29;22.50;;;6.72;;
72728;SDS011;60843;52.062;4.508;2022-10-30T03:40:54;16.77;;;5.88;;
72728;SDS011;60843;52.062;4.508;2022-10-30T03:43:20;15.55;;;6.57;;
72728;SDS011;60843;52.062;4.508;2022-10-30T03:45:46;14.98;;;7.25;;
72728;SDS011;60843;52.062;4.508;2022-10-30T03:48:13;12.30;;;6.20;;
72728;SDS011;60843;52.062;4.508;2022-10-30T03:50:38;15.30;;;7.28;;
72728;SDS011;60843;52.062;4.508;2022-10-30T03:53:04;21.40;;;6.90;;
72728;SDS011;60843;52.062;4.508;2022-10-30T03:55:29;11.00;;;5.90;;
72728;SDS011;60843;52.062;4.508;2022-10-30T03:57:54;12.63;;;6.30;;
72728;SDS011;60843;52.062;4.508;2022-10-30T04:00:20;15.32;;;6.82;;
72728;SDS011;60843;52.062;4.508;2022-10-30T04:02:46;17.23;;;7.67;;
72728;SDS011;60843;52.062;4.508;2022-10-30T04:05:13;18.17;;;7.03;;
72728;SDS011;60843;52.062;4.508;2022-10-30T04:07:42;18.52;;;6.93;;
72728;SDS011;60843;52.062;4.508;2022-10-30T04:10:08;13.70;;;6.65;;
72728;SDS011;60843;52.062;4.508;2022-10-30T04:12:34;20.65;;;7.00;;
72728;SDS011;60843;52.062;4.508;2022-10-30T04:14:59;14.85;;;6.20;;
72728;SDS011;60843;52.062;4.508;2022-10-30T04:17:25;10.63;;;6.20;;
72728;SDS011;60843;52.062;4.508;2022-10-30T04:19:51;17.50;;;6.78;;
72728;SDS011;60843;52.062;4.508;2022-10-30T04:22:16;12.68;;;6.28;;
72728;SDS011;60843;52.062;4.508;2022-10-30T04:24:41;14.60;;;7.05;;
72728;SDS011;60843;52.062;4.508;2022-10-30T04:27:07;17.15;;;6.63;;
72728;SDS011;60843;52.062;4.508;2022-10-30T04:29:32;20.13;;;6.73;;
72728;SDS011;60843;52.062;4.508;2022-10-30T04:31:58;13.57;;;6.40;;
72728;SDS011;60843;52.062;4.508;2022-10-30T04:34:23;16.83;;;6.65;;
72728;SDS011;60843;52.062;4.508;2022-10-30T04:36:48;16.80;;;6.17;;
72728;SDS011;60843;52.062;4.508;2022-10-30T04:39:14;21.55;;;8.95;;
72728;SDS011;60843;52.062;4.508;2022-10-30T04:41:39;17.87;;;6.83;;
72728;SDS011;60843;52.062;4.508;2022-10-30T04:44:04;19.13;;;7.67;;
72728;SDS011;60843;52.062;4.508;2022-10-30T04:46:30;18.17;;;7.35;;
72728;SDS011;60843;52.062;4.508;2022-10-30T04:48:56;18.35;;;8.13;;
72728;SDS011;60843;52.062;4.508;2022-10-30T04:51:22;17.90;;;6.93;;
72728;SDS011;60843;52.062;4.508;2022-10-30T04:53:48;20.52;;;7.88;;
72728;SDS011;60843;52.062;4.508;2022-10-30T04:56:13;18.85;;;7.20;;
72728;SDS011;60843;52.062;4.508;2022-10-30T04:58:39;15.13;;;6.87;;
72728;SDS011;60843;52.062;4.508;2022-10-30T05:01:05;23.10;;;8.38;;
72728;SDS011;60843;52.062;4.508;2022-10-30T05:03:31;19.52;;;8.07;;
72728;SDS011;60843;52.062;4.508;2022-10-30T05:06:00;18.25;;;7.75;;
72728;SDS011;60843;52.062;4.508;2022-10-30T05:08:50;20.85;;;7.88;;
72728;SDS011;60843;52.062;4.508;2022-10-30T05:11:15;14.50;;;6.88;;
72728;SDS011;60843;52.062;4.508;2022-10-30T05:13:41;15.88;;;6.95;;
72728;SDS011;60843;52.062;4.508;2022-10-30T05:16:07;14.77;;;7.13;;
72728;SDS011;60843;52.062;4.508;2022-10-30T05:18:32;16.40;;;7.57;;
72728;SDS011;60843;52.062;4.508;2022-10-30T05:20:57;18.03;;;7.47;;
72728;SDS011;60843;52.062;4.508;2022-10-30T05:23:23;20.52;;;7.07;;
72728;SDS011;60843;52.062;4.508;2022-10-30T05:25:48;17.80;;;7.27;;
72728;SDS011;60843;52.062;4.508;2022-10-30T05:28:14;19.58;;;7.65;;
72728;SDS011;60843;52.062;4.508;2022-10-30T05:30:40;20.00;;;7.88;;
72728;SDS011;60843;52.062;4.508;2022-10-30T05:33:06;15.75;;;7.60;;
72728;SDS011;60843;52.062;4.508;2022-10-30T05:35:33;19.10;;;7.82;;
72728;SDS011;60843;52.062;4.508;2022-10-30T05:38:00;21.92;;;7.35;;
72728;SDS011;60843;52.062;4.508;2022-10-30T05:40:26;20.23;;;7.10;;
72728;SDS011;60843;52.062;4.508;2022-10-30T05:42:51;16.38;;;7.35;;
72728;SDS011;60843;52.062;4.508;2022-10-30T05:45:17;19.47;;;7.33;;
72728;SDS011;60843;52.062;4.508;2022-10-30T05:47:43;14.63;;;6.97;;
72728;SDS011;60843;52.062;4.508;2022-10-30T05:50:09;20.98;;;7.78;;
72728;SDS011;60843;52.062;4.508;2022-10-30T05:52:35;11.45;;;6.75;;
72728;SDS011;60843;52.062;4.508;2022-10-30T05:55:01;19.23;;;7.43;;
72728;SDS011;60843;52.062;4.508;2022-10-30T05:57:27;21.00;;;7.32;;
72728;SDS011;60843;52.062;4.508;2022-10-30T05:59:53;18.38;;;6.80;;
72728;SDS011;60843;52.062;4.508;2022-10-30T06:02:19;12.20;;;6.38;;
72728;SDS011;60843;52.062;4.508;2022-10-30T06:04:44;22.58;;;7.13;;
72728;SDS011;60843;52.062;4.508;2022-10-30T06:07:10;18.85;;;7.65;;
72728;SDS011;60843;52.062;4.508;2022-10-30T06:09:35;20.23;;;7.33;;
72728;SDS011;60843;52.062;4.508;2022-10-30T06:12:00;19.83;;;6.50;;
72728;SDS011;60843;52.062;4.508;2022-10-30T06:14:26;19.83;;;7.57;;
72728;SDS011;60843;52.062;4.508;2022-10-30T06:16:51;16.87;;;7.40;;
72728;SDS011;60843;52.062;4.508;2022-10-30T06:19:17;15.27;;;7.37;;
72728;SDS011;60843;52.062;4.508;2022-10-30T06:21:42;15.77;;;7.00;;
72728;SDS011;60843;52.062;4.508;2022-10-30T06:24:07;21.03;;;7.30;;
72728;SDS011;60843;52.062;4.508;2022-10-30T06:26:33;20.23;;;8.35;;
72728;SDS011;60843;52.062;4.508;2022-10-30T06:28:58;20.58;;;7.80;;
72728;SDS011;60843;52.062;4.508;2022-10-30T06:31:24;21.37;;;8.27;;
72728;SDS011;60843;52.062;4.508;2022-10-30T06:33:49;13.43;;;7.15;;
72728;SDS011;60843;52.062;4.508;2022-10-30T06:36:14;24.80;;;7.75;;
72728;SDS011;60843;52.062;4.508;2022-10-30T06:38:41;17.95;;;8.25;;
72728;SDS011;60843;52.062;4.508;2022-10-30T06:41:07;21.20;;;9.23;;
72728;SDS011;60843;52.062;4.508;2022-10-30T06:43:33;20.85;;;7.95;;
72728;SDS011;60843;52.062;4.508;2022-10-30T06:45:58;22.25;;;9.68;;
72728;SDS011;60843;52.062;4.508;2022-10-30T06:48:24;14.65;;;7.97;;
72728;SDS011;60843;52.062;4.508;2022-10-30T06:50:53;20.63;;;8.30;;
72728;SDS011;60843;52.062;4.508;2022-10-30T06:53:19;17.90;;;8.50;;
72728;SDS011;60843;52.062;4.508;2022-10-30T06:55:44;21.17;;;9.63;;
72728;SDS011;60843;52.062;4.508;2022-10-30T06:58:24;26.42;;;9.57;;
72728;SDS011;60843;52.062;4.508;2022-10-30T07:00:50;21.15;;;9.88;;
72728;SDS011;60843;52.062;4.508;2022-10-30T07:03:15;20.15;;;8.43;;
72728;SDS011;60843;52.062;4.508;2022-10-30T07:05:41;20.95;;;9.02;;
72728;SDS011;60843;52.062;4.508;2022-10-30T07:08:06;21.73;;;8.88;;
72728;SDS011;60843;52.062;4.508;2022-10-30T07:10:32;17.08;;;7.72;;
72728;SDS011;60843;52.062;4.508;2022-10-30T07:12:57;23.23;;;8.65;;
72728;SDS011;60843;52.062;4.508;2022-10-30T07:15:23;21.67;;;8.73;;
72728;SDS011;60843;52.062;4.508;2022-10-30T07:17:52;22.75;;;7.75;;
72728;SDS011;60843;52.062;4.508;2022-10-30T07:20:21;21.85;;;7.97;;
72728;SDS011;60843;52.062;4.508;2022-10-30T07:22:47;20.70;;;7.60;;
72728;SDS011;60843;52.062;4.508;2022-10-30T07:25:12;17.20;;;7.00;;
72728;SDS011;60843;52.062;4.508;2022-10-30T07:27:45;17.10;;;6.88;;
72728;SDS011;60843;52.062;4.508;2022-10-30T07:30:12;15.65;;;6.85;;
72728;SDS011;60843;52.062;4.508;2022-10-30T07:32:40;17.17;;;7.40;;
72728;SDS011;60843;52.062;4.508;2022-10-30T07:35:06;16.88;;;6.65;;
72728;SDS011;60843;52.062;4.508;2022-10-30T07:37:32;17.75;;;7.70;;
72728;SDS011;60843;52.062;4.508;2022-10-30T07:39:58;22.45;;;7.80;;
72728;SDS011;60843;52.062;4.508;2022-10-30T07:42:23;17.40;;;7.93;;
72728;SDS011;60843;52.062;4.508;2022-10-30T07:44:49;20.30;;;7.70;;
72728;SDS011;60843;52.062;4.508;2022-10-30T07:47:14;21.85;;;7.45;;
72728;SDS011;60843;52.062;4.508;2022-10-30T07:49:40;13.38;;;7.07;;
72728;SDS011;60843;52.062;4.508;2022-10-30T07:52:05;17.17;;;7.47;;
72728;SDS011;60843;52.062;4.508;2022-10-30T07:54:30;18.77;;;7.50;;
72728;SDS011;60843;52.062;4.508;2022-10-30T07:56:56;20.65;;;7.07;;
72728;SDS011;60843;52.062;4.508;2022-10-30T07:59:23;19.10;;;7.65;;
72728;SDS011;60843;52.062;4.508;2022-10-30T08:01:48;20.55;;;6.97;;
72728;SDS011;60843;52.062;4.508;2022-10-30T08:04:14;18.02;;;7.60;;
72728;SDS011;60843;52.062;4.508;2022-10-30T08:06:39;18.58;;;7.28;;
72728;SDS011;60843;52.062;4.508;2022-10-30T08:09:05;20.63;;;7.43;;
72728;SDS011;60843;52.062;4.508;2022-10-30T08:11:30;20.58;;;8.27;;
72728;SDS011;60843;52.062;4.508;2022-10-30T08:13:56;19.92;;;7.50;;
72728;SDS011;60843;52.062;4.508;2022-10-30T08:16:21;18.20;;;7.30;;
72728;SDS011;60843;52.062;4.508;2022-10-30T08:18:46;19.17;;;7.95;;
72728;SDS011;60843;52.062;4.508;2022-10-30T08:21:12;17.83;;;7.90;;
72728;SDS011;60843;52.062;4.508;2022-10-30T08:23:38;16.17;;;7.78;;
72728;SDS011;60843;52.062;4.508;2022-10-30T08:26:03;18.00;;;7.53;;
72728;SDS011;60843;52.062;4.508;2022-10-30T08:28:29;18.10;;;7.82;;
72728;SDS011;60843;52.062;4.508;2022-10-30T08:30:56;15.10;;;7.15;;
72728;SDS011;60843;52.062;4.508;2022-10-30T08:33:22;22.13;;;8.27;;
72728;SDS011;60843;52.062;4.508;2022-10-30T08:35:48;16.50;;;7.50;;
72728;SDS011;60843;52.062;4.508;2022-10-30T08:38:14;18.70;;;7.35;;
72728;SDS011;60843;52.062;4.508;2022-10-30T08:40:40;16.85;;;8.23;;
72728;SDS011;60843;52.062;4.508;2022-10-30T08:43:06;18.15;;;8.05;;
72728;SDS011;60843;52.062;4.508;2022-10-30T08:45:32;26.95;;;8.20;;
72728;SDS011;60843;52.062;4.508;2022-10-30T08:47:58;17.65;;;7.80;;
72728;SDS011;60843;52.062;4.508;2022-10-30T08:50:24;20.52;;;7.90;;
72728;SDS011;60843;52.062;4.508;2022-10-30T08:52:49;20.77;;;9.73;;
72728;SDS011;60843;52.062;4.508;2022-10-30T08:55:15;24.65;;;10.20;;
72728;SDS011;60843;52.062;4.508;2022-10-30T08:57:41;16.05;;;7.88;;
72728;SDS011;60843;52.062;4.508;2022-10-30T09:00:06;22.43;;;9.03;;
72728;SDS011;60843;52.062;4.508;2022-10-30T09:02:33;19.00;;;8.68;;
72728;SDS011;60843;52.062;4.508;2022-10-30T09:04:59;18.30;;;8.60;;
72728;SDS011;60843;52.062;4.508;2022-10-30T09:07:24;16.65;;;8.32;;
72728;SDS011;60843;52.062;4.508;2022-10-30T09:09:50;19.35;;;7.45;;
72728;SDS011;60843;52.062;4.508;2022-10-30T09:12:15;23.30;;;8.10;;
72728;SDS011;60843;52.062;4.508;2022-10-30T09:14:41;20.30;;;8.05;;
72728;SDS011;60843;52.062;4.508;2022-10-30T09:17:06;17.92;;;8.48;;
72728;SDS011;60843;52.062;4.508;2022-10-30T09:19:31;21.65;;;8.73;;
72728;SDS011;60843;52.062;4.508;2022-10-30T09:21:57;20.00;;;8.33;;
72728;SDS011;60843;52.062;4.508;2022-10-30T09:24:22;21.00;;;8.02;;
72728;SDS011;60843;52.062;4.508;2022-10-30T09:26:48;19.17;;;8.87;;
72728;SDS011;60843;52.062;4.508;2022-10-30T09:29:13;21.00;;;7.68;;
72728;SDS011;60843;52.062;4.508;2022-10-30T09:31:38;20.07;;;8.40;;
72728;SDS011;60843;52.062;4.508;2022-10-30T09:34:04;21.23;;;10.88;;
72728;SDS011;60843;52.062;4.508;2022-10-30T09:36:30;28.45;;;13.15;;
72728;SDS011;60843;52.062;4.508;2022-10-30T09:38:57;27.10;;;10.93;;
72728;SDS011;60843;52.062;4.508;2022-10-30T09:49:46;23.73;;;9.25;;
72728;SDS011;60843;52.062;4.508;2022-10-30T09:52:12;27.63;;;9.98;;
72728;SDS011;60843;52.062;4.508;2022-10-30T09:54:54;21.83;;;9.40;;
72728;SDS011;60843;52.062;4.508;2022-10-30T09:57:32;17.63;;;7.85;;
72728;SDS011;60843;52.062;4.508;2022-10-30T10:00:21;21.88;;;9.38;;
72728;SDS011;60843;52.062;4.508;2022-10-30T10:05:39;25.10;;;9.13;;
72728;SDS011;60843;52.062;4.508;2022-10-30T10:10:58;44.47;;;19.30;;
72728;SDS011;60843;52.062;4.508;2022-10-30T10:15:58;15.63;;;6.70;;
72728;SDS011;60843;52.062;4.508;2022-10-30T10:18:37;14.73;;;5.95;;
72728;SDS011;60843;52.062;4.508;2022-10-30T10:21:22;21.48;;;10.15;;
72728;SDS011;60843;52.062;4.508;2022-10-30T10:23:50;22.60;;;8.25;;
72728;SDS011;60843;52.062;4.508;2022-10-30T10:28:52;16.65;;;6.28;;
72728;SDS011;60843;52.062;4.508;2022-10-30T10:42:23;29.52;;;12.43;;
72728;SDS011;60843;52.062;4.508;2022-10-30T10:47:57;39.60;;;18.58;;
72728;SDS011;60843;52.062;4.508;2022-10-30T10:50:24;20.10;;;8.27;;
72728;SDS011;60843;52.062;4.508;2022-10-30T10:53:05;21.23;;;8.98;;
72728;SDS011;60843;52.062;4.508;2022-10-30T10:55:47;13.57;;;5.60;;
72728;SDS011;60843;52.062;4.508;2022-10-30T11:00:57;27.58;;;12.00;;
72728;SDS011;60843;52.062;4.508;2022-10-30T11:06:30;14.48;;;6.80;;
72728;SDS011;60843;52.062;4.508;2022-10-30T11:09:13;16.98;;;6.18;;
72728;SDS011;60843;52.062;4.508;2022-10-30T11:11:41;22.23;;;8.13;;
72728;SDS011;60843;52.062;4.508;2022-10-30T11:19:27;19.08;;;7.00;;
72728;SDS011;60843;52.062;4.508;2022-10-30T11:21:54;17.85;;;5.78;;
72728;SDS011;60843;52.062;4.508;2022-10-30T11:26:55;13.73;;;5.43;;
72728;SDS011;60843;52.062;4.508;2022-10-30T11:29:22;15.00;;;5.35;;
72728;SDS011;60843;52.062;4.508;2022-10-30T11:31:57;15.18;;;5.40;;
72728;SDS011;60843;52.062;4.508;2022-10-30T11:34:30;14.95;;;5.20;;
72728;SDS011;60843;52.062;4.508;2022-10-30T11:37:00;14.27;;;5.88;;
72728;SDS011;60843;52.062;4.508;2022-10-30T11:39:30;15.65;;;5.65;;
72728;SDS011;60843;52.062;4.508;2022-10-30T11:42:12;16.60;;;5.93;;
72728;SDS011;60843;52.062;4.508;2022-10-30T11:44:42;13.77;;;4.50;;
72728;SDS011;60843;52.062;4.508;2022-10-30T11:47:10;10.63;;;4.47;;
72728;SDS011;60843;52.062;4.508;2022-10-30T11:49:42;12.07;;;4.70;;
72728;SDS011;60843;52.062;4.508;2022-10-30T11:52:15;13.52;;;4.90;;
72728;SDS011;60843;52.062;4.508;2022-10-30T11:54:44;12.38;;;4.80;;
72728;SDS011;60843;52.062;4.508;2022-10-30T11:57:33;15.70;;;5.38;;
72728;SDS011;60843;52.062;4.508;2022-10-30T12:00:18;11.50;;;5.22;;
72728;SDS011;60843;52.062;4.508;2022-10-30T12:02:45;13.63;;;5.22;;
72728;SDS011;60843;52.062;4.508;2022-10-30T12:05:33;12.05;;;4.35;;
72728;SDS011;60843;52.062;4.508;2022-10-30T12:10:56;10.15;;;4.70;;
72728;SDS011;60843;52.062;4.508;2022-10-30T12:13:20;11.30;;;4.82;;
72728;SDS011;60843;52.062;4.508;2022-10-30T12:15:47;13.18;;;4.65;;
72728;SDS011;60843;52.062;4.508;2022-10-30T12:18:19;14.00;;;5.20;;
72728;SDS011;60843;52.062;4.508;2022-10-30T12:20:48;13.63;;;5.07;;
72728;SDS011;60843;52.062;4.508;2022-10-30T12:23:23;14.00;;;5.78;;
72728;SDS011;60843;52.062;4.508;2022-10-30T12:25:51;15.82;;;5.22;;
72728;SDS011;60843;52.062;4.508;2022-10-30T12:28:22;13.93;;;5.00;;
72728;SDS011;60843;52.062;4.508;2022-10-30T12:33:33;12.50;;;4.78;;
72728;SDS011;60843;52.062;4.508;2022-10-30T12:36:03;15.93;;;5.22;;
72728;SDS011;60843;52.062;4.508;2022-10-30T12:41:25;10.75;;;4.35;;
72728;SDS011;60843;52.062;4.508;2022-10-30T12:46:37;16.05;;;5.10;;
72728;SDS011;60843;52.062;4.508;2022-10-30T12:49:15;9.93;;;4.72;;
72728;SDS011;60843;52.062;4.508;2022-10-30T12:51:55;16.58;;;4.78;;
72728;SDS011;60843;52.062;4.508;2022-10-30T12:54:48;12.70;;;4.68;;
72728;SDS011;60843;52.062;4.508;2022-10-30T12:57:16;15.38;;;4.60;;
72728;SDS011;60843;52.062;4.508;2022-10-30T13:02:35;14.68;;;5.32;;
72728;SDS011;60843;52.062;4.508;2022-10-30T13:05:04;17.10;;;5.28;;
72728;SDS011;60843;52.062;4.508;2022-10-30T13:07:40;14.07;;;5.55;;
72728;SDS011;60843;52.062;4.508;2022-10-30T13:12:39;13.30;;;5.53;;
72728;SDS011;60843;52.062;4.508;2022-10-30T13:17:42;14.07;;;5.80;;
72728;SDS011;60843;52.062;4.508;2022-10-30T13:20:10;12.10;;;5.00;;
72728;SDS011;60843;52.062;4.508;2022-10-30T13:30:46;13.77;;;4.60;;
72728;SDS011;60843;52.062;4.508;2022-10-30T13:33:26;13.38;;;4.10;;
72728;SDS011;60843;52.062;4.508;2022-10-30T13:36:04;14.98;;;4.65;;
72728;SDS011;60843;52.062;4.508;2022-10-30T13:38:39;8.38;;;3.25;;
72728;SDS011;60843;52.062;4.508;2022-10-30T13:41:23;12.52;;;3.45;;
72728;SDS011;60843;52.062;4.508;2022-10-30T13:52:13;11.20;;;4.35;;
72728;SDS011;60843;52.062;4.508;2022-10-30T13:54:44;13.10;;;4.65;;
72728;SDS011;60843;52.062;4.508;2022-10-30T13:57:24;13.35;;;4.30;;
72728;SDS011;60843;52.062;4.508;2022-10-30T14:00:04;15.25;;;3.92;;
72728;SDS011;60843;52.062;4.508;2022-10-30T14:02:42;9.38;;;3.80;;
72728;SDS011;60843;52.062;4.508;2022-10-30T14:10:55;12.80;;;3.80;;
72728;SDS011;60843;52.062;4.508;2022-10-30T14:13:22;13.45;;;3.95;;
72728;SDS011;60843;52.062;4.508;2022-10-30T14:15:57;9.88;;;3.83;;
72728;SDS011;60843;52.062;4.508;2022-10-30T14:19:00;10.32;;;3.78;;
72728;SDS011;60843;52.062;4.508;2022-10-30T14:24:01;11.55;;;3.83;;
72728;SDS011;60843;52.062;4.508;2022-10-30T14:26:37;11.02;;;3.53;;
72728;SDS011;60843;52.062;4.508;2022-10-30T14:29:45;16.77;;;3.50;;
72728;SDS011;60843;52.062;4.508;2022-10-30T14:32:01;11.38;;;3.03;;
72728;SDS011;60843;52.062;4.508;2022-10-30T14:37:17;11.10;;;2.90;;
72728;SDS011;60843;52.062;4.508;2022-10-30T14:42:56;7.00;;;2.85;;
72728;SDS011;60843;52.062;4.508;2022-10-30T14:45:26;6.72;;;3.40;;
72728;SDS011;60843;52.062;4.508;2022-10-30T14:47:56;8.70;;;3.78;;
72728;SDS011;60843;52.062;4.508;2022-10-30T14:50:31;8.70;;;3.10;;
72728;SDS011;60843;52.062;4.508;2022-10-30T14:53:05;6.93;;;3.00;;
72728;SDS011;60843;52.062;4.508;2022-10-30T14:58:39;10.82;;;3.10;;
72728;SDS011;60843;52.062;4.508;2022-10-30T15:03:46;10.05;;;2.22;;
72728;SDS011;60843;52.062;4.508;2022-10-30T15:06:20;9.82;;;3.00;;
72728;SDS011;60843;52.062;4.508;2022-10-30T15:11:34;6.30;;;2.30;;
72728;SDS011;60843;52.062;4.508;2022-10-30T15:14:45;15.32;;;4.53;;
72728;SDS011;60843;52.062;4.508;2022-10-30T15:17:24;10.98;;;2.78;;
72728;SDS011;60843;52.062;4.508;2022-10-30T15:19:52;10.23;;;2.40;;
72728;SDS011;60843;52.062;4.508;2022-10-30T15:22:18;10.60;;;2.78;;
72728;SDS011;60843;52.062;4.508;2022-10-30T15:24:45;7.60;;;2.50;;
72728;SDS011;60843;52.062;4.508;2022-10-30T15:27:13;9.82;;;2.22;;
72728;SDS011;60843;52.062;4.508;2022-10-30T15:29:42;9.45;;;2.17;;
72728;SDS011;60843;52.062;4.508;2022-10-30T15:34:39;15.38;;;2.35;;
72728;SDS011;60843;52.062;4.508;2022-10-30T15:37:11;6.65;;;2.05;;
72728;SDS011;60843;52.062;4.508;2022-10-30T15:39:36;7.35;;;2.50;;
72728;SDS011;60843;52.062;4.508;2022-10-30T15:42:08;12.52;;;2.85;;
72728;SDS011;60843;52.062;4.508;2022-10-30T15:44:35;10.48;;;2.05;;
72728;SDS011;60843;52.062;4.508;2022-10-30T15:47:02;8.00;;;2.65;;
72728;SDS011;60843;52.062;4.508;2022-10-30T15:49:35;9.88;;;3.03;;
72728;SDS011;60843;52.062;4.508;2022-10-30T15:52:03;9.10;;;2.88;;
72728;SDS011;60843;52.062;4.508;2022-10-30T15:54:40;8.07;;;2.53;;
72728;SDS011;60843;52.062;4.508;2022-10-30T15:57:10;8.93;;;3.33;;
72728;SDS011;60843;52.062;4.508;2022-10-30T15:59:40;10.20;;;3.35;;
72728;SDS011;60843;52.062;4.508;2022-10-30T16:02:20;10.95;;;3.47;;
72728;SDS011;60843;52.062;4.508;2022-10-30T16:04:47;11.30;;;3.58;;
72728;SDS011;60843;52.062;4.508;2022-10-30T16:07:17;7.72;;;3.17;;
72728;SDS011;60843;52.062;4.508;2022-10-30T16:10:00;8.63;;;3.08;;
72728;SDS011;60843;52.062;4.508;2022-10-30T16:12:30;8.73;;;2.53;;
72728;SDS011;60843;52.062;4.508;2022-10-30T16:14:59;8.73;;;2.58;;
72728;SDS011;60843;52.062;4.508;2022-10-30T16:17:30;10.05;;;2.70;;
72728;SDS011;60843;52.062;4.508;2022-10-30T16:19:59;10.40;;;2.50;;
72728;SDS011;60843;52.062;4.508;2022-10-30T16:22:26;8.60;;;3.17;;
72728;SDS011;60843;52.062;4.508;2022-10-30T16:24:55;12.38;;;3.65;;
72728;SDS011;60843;52.062;4.508;2022-10-30T16:27:22;7.95;;;2.97;;
72728;SDS011;60843;52.062;4.508;2022-10-30T16:29:48;9.50;;;3.30;;
72728;SDS011;60843;52.062;4.508;2022-10-30T16:32:16;9.63;;;4.00;;
72728;SDS011;60843;52.062;4.508;2022-10-30T16:34:43;13.40;;;4.43;;
72728;SDS011;60843;52.062;4.508;2022-10-30T16:37:11;10.77;;;4.40;;
72728;SDS011;60843;52.062;4.508;2022-10-30T16:39:42;11.68;;;3.92;;
72728;SDS011;60843;52.062;4.508;2022-10-30T16:42:21;10.50;;;3.58;;
72728;SDS011;60843;52.062;4.508;2022-10-30T16:44:48;8.32;;;3.58;;
72728;SDS011;60843;52.062;4.508;2022-10-30T16:49:45;8.25;;;3.40;;
72728;SDS011;60843;52.062;4.508;2022-10-30T16:52:12;9.90;;;3.50;;
72728;SDS011;60843;52.062;4.508;2022-10-30T16:54:39;12.30;;;3.70;;
72728;SDS011;60843;52.062;4.508;2022-10-30T16:57:12;9.13;;;3.88;;
72728;SDS011;60843;52.062;4.508;2022-10-30T16:59:44;10.55;;;3.35;;
72728;SDS011;60843;52.062;4.508;2022-10-30T17:02:19;10.45;;;3.97;;
72728;SDS011;60843;52.062;4.508;2022-10-30T17:04:46;11.23;;;3.80;;